sensor_id;sensor_type;location;lat;lon;timestamp;P1;durP1;ratioP1;P2;durP2;ratioP2
10005;SDS011;5042;42.626;23.382;2023-03-13T00:02:19;3.47;;;3.17;;
10005;SDS011;5042;42.626;23.382;2023-03-13T00:04:46;3.57;;;3.20;;
10005;SDS011;5042;42.626;23.382;2023-03-13T00:07:14;3.80;;;3.03;;
10005;SDS011;5042;42.626;23.382;2023-03-13T00:09:40;5.07;;;3.90;;
10005;SDS011;5042;42.626;23.382;2023-03-13T00:12:07;4.63;;;3.00;;
10005;SDS011;5042;42.626;23.382;2023-03-13T00:14:34;4.70;;;3.53;;
10005;SDS011;5042;42.626;23.382;2023-03-13T00:17:01;3.67;;;3.33;;
10005;SDS011;5042;42.626;23.382;2023-03-13T00:19:28;6.20;;;3.97;;
10005;SDS011;5042;42.626;23.382;2023-03-13T00:21:54;4.30;;;3.40;;
10005;SDS011;5042;42.626;23.382;2023-03-13T00:24:22;3.77;;;3.33;;
10005;SDS011;5042;42.626;23.382;2023-03-13T00:26:49;4.87;;;3.20;;
10005;SDS011;5042;42.626;23.382;2023-03-13T00:29:16;4.77;;;3.30;;
10005;SDS011;5042;42.626;23.382;2023-03-13T00:31:43;5.73;;;3.50;;
10005;SDS011;5042;42.626;23.382;2023-03-13T00:34:09;6.73;;;3.87;;
10005;SDS011;5042;42.626;23.382;2023-03-13T00:36:36;4.87;;;3.87;;
10005;SDS011;5042;42.626;23.382;2023-03-13T00:39:03;5.37;;;3.40;;
10005;SDS011;5042;42.626;23.382;2023-03-13T00:41:33;4.27;;;3.27;;
10005;SDS011;5042;42.626;23.382;2023-03-13T00:44:02;4.13;;;3.40;;
10005;SDS011;5042;42.626;23.382;2023-03-13T00:46:29;4.47;;;3.30;;
10005;SDS011;5042;42.626;23.382;2023-03-13T00:48:56;6.37;;;3.40;;
10005;SDS011;5042;42.626;23.382;2023-03-13T00:51:23;5.17;;;3.43;;
10005;SDS011;5042;42.626;23.382;2023-03-13T00:53:51;4.33;;;3.30;;
10005;SDS011;5042;42.626;23.382;2023-03-13T00:56:18;6.37;;;3.37;;
10005;SDS011;5042;42.626;23.382;2023-03-13T00:58:48;4.90;;;3.50;;
10005;SDS011;5042;42.626;23.382;2023-03-13T01:01:16;4.63;;;3.60;;
10005;SDS011;5042;42.626;23.382;2023-03-13T01:03:47;6.07;;;3.50;;
10005;SDS011;5042;42.626;23.382;2023-03-13T01:06:16;6.67;;;3.50;;
10005;SDS011;5042;42.626;23.382;2023-03-13T01:08:45;3.93;;;3.33;;
10005;SDS011;5042;42.626;23.382;2023-03-13T01:11:12;4.70;;;3.47;;
10005;SDS011;5042;42.626;23.382;2023-03-13T01:13:41;5.83;;;3.03;;
10005;SDS011;5042;42.626;23.382;2023-03-13T01:16:10;4.60;;;3.10;;
10005;SDS011;5042;42.626;23.382;2023-03-13T01:18:39;2.60;;;2.23;;
10005;SDS011;5042;42.626;23.382;2023-03-13T01:21:07;4.73;;;3.30;;
10005;SDS011;5042;42.626;23.382;2023-03-13T01:23:34;5.17;;;3.13;;
10005;SDS011;5042;42.626;23.382;2023-03-13T01:26:02;3.73;;;2.03;;
10005;SDS011;5042;42.626;23.382;2023-03-13T01:28:29;2.23;;;2.13;;
10005;SDS011;5042;42.626;23.382;2023-03-13T01:30:57;4.67;;;3.07;;
10005;SDS011;5042;42.626;23.382;2023-03-13T01:33:25;5.90;;;2.93;;
10005;SDS011;5042;42.626;23.382;2023-03-13T01:35:59;3.07;;;2.80;;
10005;SDS011;5042;42.626;23.382;2023-03-13T01:38:26;4.97;;;2.57;;
10005;SDS011;5042;42.626;23.382;2023-03-13T01:40:53;5.47;;;3.53;;
10005;SDS011;5042;42.626;23.382;2023-03-13T01:43:20;4.53;;;3.10;;
10005;SDS011;5042;42.626;23.382;2023-03-13T01:46:08;3.87;;;3.10;;
10005;SDS011;5042;42.626;23.382;2023-03-13T01:48:44;4.17;;;2.87;;
10005;SDS011;5042;42.626;23.382;2023-03-13T01:51:16;4.20;;;2.63;;
10005;SDS011;5042;42.626;23.382;2023-03-13T01:53:46;4.20;;;3.60;;
10005;SDS011;5042;42.626;23.382;2023-03-13T01:56:17;3.43;;;2.70;;
10005;SDS011;5042;42.626;23.382;2023-03-13T01:58:48;4.80;;;3.20;;
10005;SDS011;5042;42.626;23.382;2023-03-13T02:01:17;4.80;;;3.37;;
10005;SDS011;5042;42.626;23.382;2023-03-13T02:03:47;3.87;;;3.30;;
10005;SDS011;5042;42.626;23.382;2023-03-13T02:06:15;3.87;;;2.97;;
10005;SDS011;5042;42.626;23.382;2023-03-13T02:08:43;3.67;;;3.23;;
10005;SDS011;5042;42.626;23.382;2023-03-13T02:11:17;4.20;;;2.80;;
10005;SDS011;5042;42.626;23.382;2023-03-13T02:13:49;3.73;;;3.07;;
10005;SDS011;5042;42.626;23.382;2023-03-13T02:16:17;5.00;;;3.50;;
10005;SDS011;5042;42.626;23.382;2023-03-13T02:18:44;3.57;;;3.27;;
10005;SDS011;5042;42.626;23.382;2023-03-13T02:21:15;3.70;;;2.80;;
10005;SDS011;5042;42.626;23.382;2023-03-13T02:23:51;2.50;;;2.23;;
10005;SDS011;5042;42.626;23.382;2023-03-13T02:26:25;3.13;;;2.40;;
10005;SDS011;5042;42.626;23.382;2023-03-13T02:28:52;3.07;;;2.80;;
10005;SDS011;5042;42.626;23.382;2023-03-13T02:31:19;3.40;;;3.10;;
10005;SDS011;5042;42.626;23.382;2023-03-13T02:33:46;2.90;;;2.50;;
10005;SDS011;5042;42.626;23.382;2023-03-13T02:36:13;4.77;;;3.10;;
10005;SDS011;5042;42.626;23.382;2023-03-13T02:38:43;4.70;;;2.87;;
10005;SDS011;5042;42.626;23.382;2023-03-13T02:41:15;3.43;;;2.57;;
10005;SDS011;5042;42.626;23.382;2023-03-13T02:43:45;2.83;;;2.60;;
10005;SDS011;5042;42.626;23.382;2023-03-13T02:46:14;2.70;;;2.37;;
10005;SDS011;5042;42.626;23.382;2023-03-13T02:48:43;3.30;;;3.00;;
10005;SDS011;5042;42.626;23.382;2023-03-13T02:51:12;3.13;;;2.73;;
10005;SDS011;5042;42.626;23.382;2023-03-13T02:53:43;7.43;;;3.27;;
10005;SDS011;5042;42.626;23.382;2023-03-13T02:56:13;3.77;;;2.87;;
10005;SDS011;5042;42.626;23.382;2023-03-13T02:58:43;4.57;;;3.20;;
10005;SDS011;5042;42.626;23.382;2023-03-13T03:01:11;2.93;;;2.63;;
10005;SDS011;5042;42.626;23.382;2023-03-13T03:03:38;4.37;;;2.97;;
10005;SDS011;5042;42.626;23.382;2023-03-13T03:06:05;3.90;;;3.00;;
10005;SDS011;5042;42.626;23.382;2023-03-13T03:08:32;4.20;;;3.20;;
10005;SDS011;5042;42.626;23.382;2023-03-13T03:11:00;4.00;;;3.00;;
10005;SDS011;5042;42.626;23.382;2023-03-13T03:13:27;3.03;;;2.40;;
10005;SDS011;5042;42.626;23.382;2023-03-13T03:15:54;3.30;;;2.30;;
10005;SDS011;5042;42.626;23.382;2023-03-13T03:18:22;3.93;;;2.87;;
10005;SDS011;5042;42.626;23.382;2023-03-13T03:20:48;6.73;;;2.47;;
10005;SDS011;5042;42.626;23.382;2023-03-13T03:23:15;2.90;;;2.60;;
10005;SDS011;5042;42.626;23.382;2023-03-13T03:25:42;2.40;;;2.20;;
10005;SDS011;5042;42.626;23.382;2023-03-13T03:28:09;2.60;;;2.40;;
10005;SDS011;5042;42.626;23.382;2023-03-13T03:30:35;3.87;;;2.93;;
10005;SDS011;5042;42.626;23.382;2023-03-13T03:33:02;3.17;;;2.27;;
10005;SDS011;5042;42.626;23.382;2023-03-13T03:35:30;2.67;;;2.47;;
10005;SDS011;5042;42.626;23.382;2023-03-13T03:37:58;4.00;;;2.27;;
10005;SDS011;5042;42.626;23.382;2023-03-13T03:40:25;2.43;;;2.23;;
10005;SDS011;5042;42.626;23.382;2023-03-13T03:42:52;2.90;;;2.70;;
10005;SDS011;5042;42.626;23.382;2023-03-13T03:45:19;2.83;;;2.37;;
10005;SDS011;5042;42.626;23.382;2023-03-13T03:47:46;2.27;;;2.13;;
10005;SDS011;5042;42.626;23.382;2023-03-13T03:50:12;2.23;;;2.03;;
10005;SDS011;5042;42.626;23.382;2023-03-13T03:52:41;4.63;;;2.83;;
10005;SDS011;5042;42.626;23.382;2023-03-13T03:55:08;3.57;;;2.50;;
10005;SDS011;5042;42.626;23.382;2023-03-13T03:57:34;3.23;;;2.77;;
10005;SDS011;5042;42.626;23.382;2023-03-13T04:00:01;4.07;;;2.90;;
10005;SDS011;5042;42.626;23.382;2023-03-13T04:02:31;6.40;;;2.80;;
10005;SDS011;5042;42.626;23.382;2023-03-13T04:04:58;4.23;;;2.77;;
10005;SDS011;5042;42.626;23.382;2023-03-13T04:07:25;2.00;;;1.90;;
10005;SDS011;5042;42.626;23.382;2023-03-13T04:09:53;3.33;;;2.97;;
10005;SDS011;5042;42.626;23.382;2023-03-13T04:12:20;3.50;;;2.60;;
10005;SDS011;5042;42.626;23.382;2023-03-13T04:14:46;5.40;;;2.80;;
10005;SDS011;5042;42.626;23.382;2023-03-13T04:17:13;6.20;;;3.23;;
10005;SDS011;5042;42.626;23.382;2023-03-13T04:19:40;3.83;;;3.00;;
10005;SDS011;5042;42.626;23.382;2023-03-13T04:22:07;3.33;;;2.97;;
10005;SDS011;5042;42.626;23.382;2023-03-13T04:24:34;3.57;;;2.73;;
10005;SDS011;5042;42.626;23.382;2023-03-13T04:27:02;4.90;;;3.00;;
10005;SDS011;5042;42.626;23.382;2023-03-13T04:29:30;5.47;;;4.00;;
10005;SDS011;5042;42.626;23.382;2023-03-13T04:31:57;5.37;;;3.80;;
10005;SDS011;5042;42.626;23.382;2023-03-13T04:34:24;3.30;;;2.93;;
10005;SDS011;5042;42.626;23.382;2023-03-13T04:36:51;5.63;;;3.63;;
10005;SDS011;5042;42.626;23.382;2023-03-13T04:39:18;4.97;;;3.80;;
10005;SDS011;5042;42.626;23.382;2023-03-13T04:41:49;11.87;;;5.27;;
10005;SDS011;5042;42.626;23.382;2023-03-13T04:44:17;5.77;;;4.17;;
10005;SDS011;5042;42.626;23.382;2023-03-13T04:46:44;6.43;;;4.40;;
10005;SDS011;5042;42.626;23.382;2023-03-13T04:49:11;4.50;;;3.90;;
10005;SDS011;5042;42.626;23.382;2023-03-13T04:51:38;7.07;;;4.50;;
10005;SDS011;5042;42.626;23.382;2023-03-13T04:54:05;4.23;;;3.83;;
10005;SDS011;5042;42.626;23.382;2023-03-13T04:56:32;5.60;;;4.10;;
10005;SDS011;5042;42.626;23.382;2023-03-13T04:58:59;4.33;;;3.87;;
10005;SDS011;5042;42.626;23.382;2023-03-13T05:01:27;5.17;;;4.07;;
10005;SDS011;5042;42.626;23.382;2023-03-13T05:03:54;4.70;;;3.20;;
10005;SDS011;5042;42.626;23.382;2023-03-13T05:06:21;5.47;;;3.63;;
10005;SDS011;5042;42.626;23.382;2023-03-13T05:08:47;3.50;;;3.20;;
10005;SDS011;5042;42.626;23.382;2023-03-13T05:11:14;4.33;;;3.50;;
10005;SDS011;5042;42.626;23.382;2023-03-13T05:13:41;4.20;;;3.80;;
10005;SDS011;5042;42.626;23.382;2023-03-13T05:16:08;3.80;;;3.40;;
10005;SDS011;5042;42.626;23.382;2023-03-13T05:18:36;4.10;;;3.70;;
10005;SDS011;5042;42.626;23.382;2023-03-13T05:21:03;4.50;;;4.10;;
10005;SDS011;5042;42.626;23.382;2023-03-13T05:23:30;3.60;;;3.30;;
10005;SDS011;5042;42.626;23.382;2023-03-13T05:25:57;4.90;;;3.57;;
10005;SDS011;5042;42.626;23.382;2023-03-13T05:28:24;6.00;;;4.17;;
10005;SDS011;5042;42.626;23.382;2023-03-13T05:30:51;5.43;;;3.53;;
10005;SDS011;5042;42.626;23.382;2023-03-13T05:33:17;4.93;;;3.50;;
10005;SDS011;5042;42.626;23.382;2023-03-13T05:35:45;3.13;;;2.77;;
10005;SDS011;5042;42.626;23.382;2023-03-13T05:38:13;3.40;;;3.10;;
10005;SDS011;5042;42.626;23.382;2023-03-13T05:40:39;5.23;;;3.27;;
10005;SDS011;5042;42.626;23.382;2023-03-13T05:43:06;3.70;;;3.33;;
10005;SDS011;5042;42.626;23.382;2023-03-13T05:45:33;3.87;;;3.03;;
10005;SDS011;5042;42.626;23.382;2023-03-13T05:48:00;5.77;;;3.30;;
10005;SDS011;5042;42.626;23.382;2023-03-13T05:50:27;2.73;;;2.53;;
10005;SDS011;5042;42.626;23.382;2023-03-13T05:52:55;5.43;;;4.10;;
10005;SDS011;5042;42.626;23.382;2023-03-13T05:55:22;6.53;;;3.97;;
10005;SDS011;5042;42.626;23.382;2023-03-13T05:57:48;5.53;;;4.80;;
10005;SDS011;5042;42.626;23.382;2023-03-13T06:00:15;5.80;;;5.00;;
10005;SDS011;5042;42.626;23.382;2023-03-13T06:02:43;7.20;;;4.47;;
10005;SDS011;5042;42.626;23.382;2023-03-13T06:05:10;6.13;;;4.90;;
10005;SDS011;5042;42.626;23.382;2023-03-13T06:07:36;6.30;;;4.07;;
10005;SDS011;5042;42.626;23.382;2023-03-13T06:10:05;7.20;;;4.53;;
10005;SDS011;5042;42.626;23.382;2023-03-13T06:12:34;4.87;;;4.37;;
10005;SDS011;5042;42.626;23.382;2023-03-13T06:15:01;5.33;;;4.23;;
10005;SDS011;5042;42.626;23.382;2023-03-13T06:17:27;6.27;;;4.67;;
10005;SDS011;5042;42.626;23.382;2023-03-13T06:19:54;7.17;;;5.27;;
10005;SDS011;5042;42.626;23.382;2023-03-13T06:22:21;7.00;;;5.37;;
10005;SDS011;5042;42.626;23.382;2023-03-13T06:24:48;6.93;;;5.57;;
10005;SDS011;5042;42.626;23.382;2023-03-13T06:27:16;9.03;;;5.30;;
10005;SDS011;5042;42.626;23.382;2023-03-13T06:29:43;8.00;;;5.20;;
10005;SDS011;5042;42.626;23.382;2023-03-13T06:32:09;6.90;;;5.27;;
10005;SDS011;5042;42.626;23.382;2023-03-13T06:34:36;5.23;;;4.37;;
10005;SDS011;5042;42.626;23.382;2023-03-13T06:37:03;4.97;;;4.17;;
10005;SDS011;5042;42.626;23.382;2023-03-13T06:39:30;5.87;;;4.63;;
10005;SDS011;5042;42.626;23.382;2023-03-13T06:41:56;7.17;;;5.00;;
10005;SDS011;5042;42.626;23.382;2023-03-13T06:44:25;5.90;;;5.30;;
10005;SDS011;5042;42.626;23.382;2023-03-13T06:46:52;6.93;;;4.73;;
10005;SDS011;5042;42.626;23.382;2023-03-13T06:49:18;5.57;;;4.57;;
10005;SDS011;5042;42.626;23.382;2023-03-13T06:51:45;5.50;;;4.40;;
10005;SDS011;5042;42.626;23.382;2023-03-13T06:54:12;7.20;;;4.90;;
10005;SDS011;5042;42.626;23.382;2023-03-13T06:56:39;5.33;;;4.53;;
10005;SDS011;5042;42.626;23.382;2023-03-13T06:59:06;4.90;;;4.40;;
10005;SDS011;5042;42.626;23.382;2023-03-13T07:01:34;4.63;;;3.93;;
10005;SDS011;5042;42.626;23.382;2023-03-13T07:04:01;5.30;;;4.50;;
10005;SDS011;5042;42.626;23.382;2023-03-13T07:06:27;5.03;;;4.43;;
10005;SDS011;5042;42.626;23.382;2023-03-13T07:08:54;6.00;;;4.33;;
10005;SDS011;5042;42.626;23.382;2023-03-13T07:11:21;6.17;;;5.13;;
10005;SDS011;5042;42.626;23.382;2023-03-13T07:13:49;5.57;;;4.97;;
10005;SDS011;5042;42.626;23.382;2023-03-13T07:16:15;6.90;;;4.83;;
10005;SDS011;5042;42.626;23.382;2023-03-13T07:18:44;6.50;;;4.60;;
10005;SDS011;5042;42.626;23.382;2023-03-13T07:21:10;6.20;;;5.60;;
10005;SDS011;5042;42.626;23.382;2023-03-13T07:23:38;7.03;;;4.93;;
10005;SDS011;5042;42.626;23.382;2023-03-13T07:26:05;6.27;;;5.27;;
10005;SDS011;5042;42.626;23.382;2023-03-13T07:28:33;6.17;;;5.00;;
10005;SDS011;5042;42.626;23.382;2023-03-13T07:31:04;6.70;;;5.20;;
10005;SDS011;5042;42.626;23.382;2023-03-13T07:33:32;9.70;;;5.67;;
10005;SDS011;5042;42.626;23.382;2023-03-13T07:36:00;6.97;;;5.50;;
10005;SDS011;5042;42.626;23.382;2023-03-13T07:38:28;4.67;;;4.17;;
10005;SDS011;5042;42.626;23.382;2023-03-13T07:40:55;6.63;;;5.23;;
10005;SDS011;5042;42.626;23.382;2023-03-13T07:43:23;10.63;;;6.20;;
10005;SDS011;5042;42.626;23.382;2023-03-13T07:45:51;8.50;;;6.20;;
10005;SDS011;5042;42.626;23.382;2023-03-13T07:48:19;6.83;;;5.40;;
10005;SDS011;5042;42.626;23.382;2023-03-13T07:50:47;8.13;;;6.13;;
10005;SDS011;5042;42.626;23.382;2023-03-13T07:53:15;8.47;;;7.43;;
10005;SDS011;5042;42.626;23.382;2023-03-13T07:55:55;8.27;;;6.40;;
10005;SDS011;5042;42.626;23.382;2023-03-13T07:58:23;9.37;;;5.60;;
10005;SDS011;5042;42.626;23.382;2023-03-13T08:00:50;11.63;;;7.93;;
10005;SDS011;5042;42.626;23.382;2023-03-13T08:03:17;12.80;;;7.90;;
10005;SDS011;5042;42.626;23.382;2023-03-13T08:05:44;11.20;;;7.53;;
10005;SDS011;5042;42.626;23.382;2023-03-13T08:08:11;9.17;;;7.07;;
10005;SDS011;5042;42.626;23.382;2023-03-13T08:10:39;10.97;;;7.40;;
10005;SDS011;5042;42.626;23.382;2023-03-13T08:13:06;10.47;;;8.40;;
10005;SDS011;5042;42.626;23.382;2023-03-13T08:15:33;10.63;;;6.70;;
10005;SDS011;5042;42.626;23.382;2023-03-13T08:18:00;10.40;;;7.37;;
10005;SDS011;5042;42.626;23.382;2023-03-13T08:20:26;11.17;;;7.73;;
10005;SDS011;5042;42.626;23.382;2023-03-13T08:22:54;9.80;;;7.77;;
10005;SDS011;5042;42.626;23.382;2023-03-13T08:25:22;11.33;;;7.77;;
10005;SDS011;5042;42.626;23.382;2023-03-13T08:27:50;10.30;;;7.80;;
10005;SDS011;5042;42.626;23.382;2023-03-13T08:30:17;9.30;;;6.80;;
10005;SDS011;5042;42.626;23.382;2023-03-13T08:32:44;8.07;;;7.00;;
10005;SDS011;5042;42.626;23.382;2023-03-13T08:35:11;8.83;;;6.63;;
10005;SDS011;5042;42.626;23.382;2023-03-13T08:37:37;11.27;;;7.70;;
10005;SDS011;5042;42.626;23.382;2023-03-13T08:40:05;12.43;;;8.67;;
10005;SDS011;5042;42.626;23.382;2023-03-13T08:42:35;13.87;;;8.90;;
10005;SDS011;5042;42.626;23.382;2023-03-13T08:45:06;11.90;;;8.67;;
10005;SDS011;5042;42.626;23.382;2023-03-13T08:47:33;11.90;;;7.37;;
10005;SDS011;5042;42.626;23.382;2023-03-13T08:50:00;12.57;;;8.17;;
10005;SDS011;5042;42.626;23.382;2023-03-13T08:52:28;11.97;;;8.17;;
10005;SDS011;5042;42.626;23.382;2023-03-13T08:54:55;10.47;;;7.70;;
10005;SDS011;5042;42.626;23.382;2023-03-13T08:57:21;11.77;;;8.13;;
10005;SDS011;5042;42.626;23.382;2023-03-13T08:59:48;12.30;;;8.87;;
10005;SDS011;5042;42.626;23.382;2023-03-13T09:02:17;10.87;;;8.53;;
10005;SDS011;5042;42.626;23.382;2023-03-13T09:04:45;12.50;;;8.37;;
10005;SDS011;5042;42.626;23.382;2023-03-13T09:07:13;8.77;;;6.57;;
10005;SDS011;5042;42.626;23.382;2023-03-13T09:09:41;11.17;;;8.03;;
10005;SDS011;5042;42.626;23.382;2023-03-13T09:12:08;14.77;;;9.10;;
10005;SDS011;5042;42.626;23.382;2023-03-13T09:14:35;10.30;;;7.93;;
10005;SDS011;5042;42.626;23.382;2023-03-13T09:17:02;15.13;;;8.60;;
10005;SDS011;5042;42.626;23.382;2023-03-13T09:19:30;12.20;;;8.83;;
10005;SDS011;5042;42.626;23.382;2023-03-13T09:21:57;14.53;;;9.27;;
10005;SDS011;5042;42.626;23.382;2023-03-13T09:24:24;9.50;;;8.20;;
10005;SDS011;5042;42.626;23.382;2023-03-13T09:26:51;10.07;;;8.43;;
10005;SDS011;5042;42.626;23.382;2023-03-13T09:29:18;7.90;;;6.87;;
10005;SDS011;5042;42.626;23.382;2023-03-13T09:31:45;12.20;;;7.83;;
10005;SDS011;5042;42.626;23.382;2023-03-13T09:34:11;12.67;;;8.43;;
10005;SDS011;5042;42.626;23.382;2023-03-13T09:36:40;9.90;;;8.23;;
10005;SDS011;5042;42.626;23.382;2023-03-13T09:39:06;9.33;;;7.77;;
10005;SDS011;5042;42.626;23.382;2023-03-13T09:41:34;11.07;;;8.43;;
10005;SDS011;5042;42.626;23.382;2023-03-13T09:44:07;10.30;;;7.50;;
10005;SDS011;5042;42.626;23.382;2023-03-13T09:46:42;12.97;;;7.70;;
10005;SDS011;5042;42.626;23.382;2023-03-13T09:49:15;8.50;;;6.17;;
10005;SDS011;5042;42.626;23.382;2023-03-13T09:51:56;8.43;;;7.33;;
10005;SDS011;5042;42.626;23.382;2023-03-13T09:54:30;11.23;;;7.53;;
10005;SDS011;5042;42.626;23.382;2023-03-13T09:57:02;10.27;;;7.27;;
10005;SDS011;5042;42.626;23.382;2023-03-13T09:59:41;9.37;;;7.80;;
10005;SDS011;5042;42.626;23.382;2023-03-13T10:02:15;11.50;;;7.77;;
10005;SDS011;5042;42.626;23.382;2023-03-13T10:04:48;9.40;;;7.13;;
10005;SDS011;5042;42.626;23.382;2023-03-13T10:07:20;8.23;;;6.63;;
10005;SDS011;5042;42.626;23.382;2023-03-13T10:09:46;8.23;;;6.90;;
10005;SDS011;5042;42.626;23.382;2023-03-13T10:12:14;10.20;;;7.40;;
10005;SDS011;5042;42.626;23.382;2023-03-13T10:14:47;10.83;;;8.10;;
10005;SDS011;5042;42.626;23.382;2023-03-13T10:17:25;10.17;;;7.80;;
10005;SDS011;5042;42.626;23.382;2023-03-13T10:19:57;5.10;;;4.60;;
10005;SDS011;5042;42.626;23.382;2023-03-13T10:22:33;6.43;;;5.67;;
10005;SDS011;5042;42.626;23.382;2023-03-13T10:25:02;10.33;;;8.07;;
10005;SDS011;5042;42.626;23.382;2023-03-13T10:27:41;9.57;;;7.40;;
10005;SDS011;5042;42.626;23.382;2023-03-13T10:30:12;10.60;;;7.40;;
10005;SDS011;5042;42.626;23.382;2023-03-13T10:32:48;10.27;;;7.13;;
10005;SDS011;5042;42.626;23.382;2023-03-13T10:35:19;9.37;;;7.37;;
10005;SDS011;5042;42.626;23.382;2023-03-13T10:37:50;11.53;;;7.80;;
10005;SDS011;5042;42.626;23.382;2023-03-13T10:40:27;8.80;;;6.10;;
10005;SDS011;5042;42.626;23.382;2023-03-13T10:42:59;9.73;;;7.37;;
10005;SDS011;5042;42.626;23.382;2023-03-13T10:45:30;9.37;;;7.20;;
10005;SDS011;5042;42.626;23.382;2023-03-13T10:48:00;10.73;;;7.47;;
10005;SDS011;5042;42.626;23.382;2023-03-13T10:50:32;10.93;;;7.47;;
10005;SDS011;5042;42.626;23.382;2023-03-13T10:53:12;12.03;;;5.23;;
10005;SDS011;5042;42.626;23.382;2023-03-13T10:55:46;5.33;;;4.03;;
10005;SDS011;5042;42.626;23.382;2023-03-13T10:58:17;12.17;;;7.27;;
10005;SDS011;5042;42.626;23.382;2023-03-13T11:00:46;8.97;;;6.83;;
10005;SDS011;5042;42.626;23.382;2023-03-13T11:03:14;8.80;;;6.67;;
10005;SDS011;5042;42.626;23.382;2023-03-13T11:05:43;13.63;;;6.57;;
10005;SDS011;5042;42.626;23.382;2023-03-13T11:08:21;8.73;;;6.73;;
10005;SDS011;5042;42.626;23.382;2023-03-13T11:10:50;8.73;;;6.27;;
10005;SDS011;5042;42.626;23.382;2023-03-13T11:13:27;7.43;;;6.20;;
10005;SDS011;5042;42.626;23.382;2023-03-13T11:15:56;7.53;;;5.77;;
10005;SDS011;5042;42.626;23.382;2023-03-13T11:18:27;10.23;;;6.10;;
10005;SDS011;5042;42.626;23.382;2023-03-13T11:21:02;7.40;;;6.03;;
10005;SDS011;5042;42.626;23.382;2023-03-13T11:23:33;7.70;;;5.73;;
10005;SDS011;5042;42.626;23.382;2023-03-13T11:26:06;7.07;;;5.73;;
10005;SDS011;5042;42.626;23.382;2023-03-13T11:28:44;6.73;;;5.07;;
10005;SDS011;5042;42.626;23.382;2023-03-13T11:31:18;7.27;;;5.13;;
10005;SDS011;5042;42.626;23.382;2023-03-13T11:33:52;6.93;;;5.90;;
10005;SDS011;5042;42.626;23.382;2023-03-13T11:36:27;6.00;;;5.20;;
10005;SDS011;5042;42.626;23.382;2023-03-13T11:39:04;6.63;;;5.27;;
10005;SDS011;5042;42.626;23.382;2023-03-13T11:41:51;7.50;;;6.10;;
10005;SDS011;5042;42.626;23.382;2023-03-13T11:44:28;6.03;;;5.27;;
10005;SDS011;5042;42.626;23.382;2023-03-13T11:46:59;9.23;;;5.80;;
10005;SDS011;5042;42.626;23.382;2023-03-13T11:49:52;10.00;;;6.53;;
10005;SDS011;5042;42.626;23.382;2023-03-13T11:52:33;8.00;;;6.30;;
10005;SDS011;5042;42.626;23.382;2023-03-13T11:55:17;6.63;;;5.67;;
10005;SDS011;5042;42.626;23.382;2023-03-13T11:57:56;9.60;;;6.53;;
10005;SDS011;5042;42.626;23.382;2023-03-13T12:00:32;9.87;;;7.03;;
10005;SDS011;5042;42.626;23.382;2023-03-13T12:03:03;8.13;;;6.33;;
10005;SDS011;5042;42.626;23.382;2023-03-13T12:05:37;6.63;;;5.73;;
10005;SDS011;5042;42.626;23.382;2023-03-13T12:08:10;7.60;;;6.57;;
10005;SDS011;5042;42.626;23.382;2023-03-13T12:10:44;7.70;;;6.47;;
10005;SDS011;5042;42.626;23.382;2023-03-13T12:13:15;7.77;;;6.23;;
10005;SDS011;5042;42.626;23.382;2023-03-13T12:15:47;8.10;;;6.30;;
10005;SDS011;5042;42.626;23.382;2023-03-13T12:18:18;6.57;;;5.00;;
10005;SDS011;5042;42.626;23.382;2023-03-13T12:20:50;8.00;;;5.80;;
10005;SDS011;5042;42.626;23.382;2023-03-13T12:23:22;7.17;;;5.93;;
10005;SDS011;5042;42.626;23.382;2023-03-13T12:25:59;8.77;;;5.97;;
10005;SDS011;5042;42.626;23.382;2023-03-13T12:28:32;8.67;;;6.03;;
10005;SDS011;5042;42.626;23.382;2023-03-13T12:31:11;9.33;;;5.93;;
10005;SDS011;5042;42.626;23.382;2023-03-13T12:33:51;9.53;;;6.40;;
10005;SDS011;5042;42.626;23.382;2023-03-13T12:36:22;5.67;;;5.07;;
10005;SDS011;5042;42.626;23.382;2023-03-13T12:38:54;5.53;;;4.63;;
10005;SDS011;5042;42.626;23.382;2023-03-13T12:41:25;7.70;;;6.07;;
10005;SDS011;5042;42.626;23.382;2023-03-13T12:43:56;7.93;;;6.10;;
10005;SDS011;5042;42.626;23.382;2023-03-13T12:46:34;6.70;;;5.80;;
10005;SDS011;5042;42.626;23.382;2023-03-13T12:49:12;7.90;;;5.17;;
10005;SDS011;5042;42.626;23.382;2023-03-13T12:51:56;5.20;;;4.70;;
10005;SDS011;5042;42.626;23.382;2023-03-13T12:54:39;7.23;;;5.77;;
10005;SDS011;5042;42.626;23.382;2023-03-13T12:57:21;8.53;;;5.83;;
10005;SDS011;5042;42.626;23.382;2023-03-13T13:00:10;7.60;;;5.50;;
10005;SDS011;5042;42.626;23.382;2023-03-13T13:02:41;6.20;;;5.10;;
10005;SDS011;5042;42.626;23.382;2023-03-13T13:05:15;6.87;;;5.50;;
10005;SDS011;5042;42.626;23.382;2023-03-13T13:07:50;6.80;;;5.30;;
10005;SDS011;5042;42.626;23.382;2023-03-13T13:10:20;6.73;;;5.77;;
10005;SDS011;5042;42.626;23.382;2023-03-13T13:15:58;7.33;;;5.43;;
10005;SDS011;5042;42.626;23.382;2023-03-13T13:18:26;9.10;;;5.77;;
10005;SDS011;5042;42.626;23.382;2023-03-13T13:21:17;8.17;;;5.90;;
10005;SDS011;5042;42.626;23.382;2023-03-13T13:23:46;7.90;;;5.43;;
10005;SDS011;5042;42.626;23.382;2023-03-13T13:32:41;11.17;;;6.60;;
10005;SDS011;5042;42.626;23.382;2023-03-13T13:35:21;8.83;;;6.03;;
10005;SDS011;5042;42.626;23.382;2023-03-13T13:37:52;7.30;;;5.97;;
10005;SDS011;5042;42.626;23.382;2023-03-13T13:40:40;8.23;;;5.90;;
10005;SDS011;5042;42.626;23.382;2023-03-13T13:43:23;6.57;;;5.73;;
10005;SDS011;5042;42.626;23.382;2023-03-13T13:45:55;7.73;;;6.30;;
10005;SDS011;5042;42.626;23.382;2023-03-13T13:48:27;8.33;;;6.50;;
10005;SDS011;5042;42.626;23.382;2023-03-13T13:53:54;7.57;;;6.70;;
10005;SDS011;5042;42.626;23.382;2023-03-13T14:04:51;7.60;;;6.17;;
10005;SDS011;5042;42.626;23.382;2023-03-13T14:07:24;6.20;;;5.60;;
10005;SDS011;5042;42.626;23.382;2023-03-13T14:09:58;7.50;;;5.90;;
10005;SDS011;5042;42.626;23.382;2023-03-13T14:12:31;7.20;;;5.87;;
10005;SDS011;5042;42.626;23.382;2023-03-13T14:15:06;7.93;;;5.97;;
10005;SDS011;5042;42.626;23.382;2023-03-13T14:18:08;7.20;;;5.33;;
10005;SDS011;5042;42.626;23.382;2023-03-13T14:20:37;6.83;;;5.93;;
10005;SDS011;5042;42.626;23.382;2023-03-13T14:23:27;7.93;;;6.20;;
10005;SDS011;5042;42.626;23.382;2023-03-13T14:25:55;8.87;;;6.17;;
10005;SDS011;5042;42.626;23.382;2023-03-13T14:28:24;7.53;;;6.37;;
10005;SDS011;5042;42.626;23.382;2023-03-13T14:30:53;8.60;;;6.40;;
10005;SDS011;5042;42.626;23.382;2023-03-13T14:33:22;7.33;;;6.07;;
10005;SDS011;5042;42.626;23.382;2023-03-13T14:35:49;7.27;;;5.97;;
10005;SDS011;5042;42.626;23.382;2023-03-13T14:38:19;8.27;;;6.67;;
10005;SDS011;5042;42.626;23.382;2023-03-13T14:40:47;13.80;;;9.77;;
10005;SDS011;5042;42.626;23.382;2023-03-13T14:43:18;7.40;;;6.00;;
10005;SDS011;5042;42.626;23.382;2023-03-13T14:45:51;6.30;;;5.43;;
10005;SDS011;5042;42.626;23.382;2023-03-13T14:48:19;6.53;;;5.27;;
10005;SDS011;5042;42.626;23.382;2023-03-13T14:50:49;7.17;;;5.67;;
10005;SDS011;5042;42.626;23.382;2023-03-13T14:53:19;5.67;;;5.07;;
10005;SDS011;5042;42.626;23.382;2023-03-13T14:55:47;7.93;;;5.40;;
10005;SDS011;5042;42.626;23.382;2023-03-13T14:58:34;9.50;;;6.00;;
10005;SDS011;5042;42.626;23.382;2023-03-13T15:01:12;6.13;;;5.40;;
10005;SDS011;5042;42.626;23.382;2023-03-13T15:03:49;8.93;;;5.00;;
10005;SDS011;5042;42.626;23.382;2023-03-13T15:06:19;6.60;;;5.07;;
10005;SDS011;5042;42.626;23.382;2023-03-13T15:08:48;8.93;;;5.70;;
10005;SDS011;5042;42.626;23.382;2023-03-13T15:11:32;7.20;;;4.93;;
10005;SDS011;5042;42.626;23.382;2023-03-13T15:13:59;6.47;;;5.13;;
10005;SDS011;5042;42.626;23.382;2023-03-13T15:16:28;6.87;;;5.10;;
10005;SDS011;5042;42.626;23.382;2023-03-13T15:18:55;7.23;;;5.60;;
10005;SDS011;5042;42.626;23.382;2023-03-13T15:21:24;6.43;;;5.67;;
10005;SDS011;5042;42.626;23.382;2023-03-13T15:23:53;6.83;;;5.20;;